Time;durP1;ratioP1;P1;durP2;ratioP2;P2;SDS_P1;SDS_P2;PMS_P1;PMS_P2;Temp;Humidity;BMP_temperature;BMP_pressure;BME280_temperature;BME280_humidity;BME280_pressure;Samples;Min_cycle;Max_cycle;Signal;HPM_P1;HPM_P2
2023/09/20 00:09:30;;;;;;;12.68;5.40;;;;;;;21.51;100.00;101043.03;20901770;28;20053;-69
2023/09/20 00:19:54;;;;;;;14.45;5.15;;;;;;;21.52;100.00;101050.16;20902253;28;20048;-71
2023/09/20 00:30:19;;;;;;;11.50;5.10;;;;;;;21.42;100.00;101057.53;20890830;28;20126;-71
2023/09/20 00:40:47;;;;;;;16.05;5.50;;;;;;;21.16;100.00;101068.91;20891006;28;20149;-70
2023/09/20 00:51:10;;;;;;;13.23;4.90;;;;;;;21.13;100.00;101054.66;20883037;28;20132;-70
2023/09/20 01:01:35;;;;;;;17.13;6.55;;;;;;;21.15;100.00;101061.72;20894656;28;20041;-70
2023/09/20 01:11:58;;;;;;;13.13;5.10;;;;;;;21.08;100.00;101057.41;20868495;28;20053;-71
2023/09/20 01:22:23;;;;;;;11.23;5.28;;;;;;;20.95;100.00;101058.63;20895730;28;20386;-71
2023/09/20 01:32:45;;;;;;;12.43;5.35;;;;;;;20.84;100.00;101056.19;20899381;28;20052;-70
2023/09/20 01:43:11;;;;;;;14.63;5.40;;;;;;;20.83;100.00;101070.50;20885577;28;20076;-71
2023/09/20 01:53:34;;;;;;;14.07;4.75;;;;;;;20.60;100.00;101062.06;20896673;28;20496;-70
2023/09/20 02:03:59;;;;;;;15.60;5.75;;;;;;;20.71;100.00;101059.16;20908887;28;20071;-70
2023/09/20 02:14:21;;;;;;;12.05;4.72;;;;;;;20.65;100.00;101061.06;20881769;28;20052;-70
2023/09/20 02:24:46;;;;;;;11.45;4.97;;;;;;;20.47;100.00;101065.94;20869658;28;20080;-70
2023/09/20 02:35:11;;;;;;;13.18;5.07;;;;;;;20.58;100.00;101067.47;20910087;28;20049;-70
2023/09/20 02:45:36;;;;;;;13.45;5.35;;;;;;;20.61;100.00;101083.47;20830933;28;20079;-70
2023/09/20 02:55:59;;;;;;;15.35;6.00;;;;;;;20.79;100.00;101081.34;20802030;28;20124;-70
2023/09/20 03:06:23;;;;;;;10.90;4.80;;;;;;;20.77;100.00;101077.81;20864496;28;20134;-70
2023/09/20 03:16:46;;;;;;;10.10;5.10;;;;;;;20.73;100.00;101077.00;20862375;28;20076;-70
2023/09/20 03:27:10;;;;;;;12.23;4.72;;;;;;;20.58;100.00;101086.25;20893939;28;20049;-71
2023/09/20 03:37:36;;;;;;;16.08;5.13;;;;;;;20.55;100.00;101102.38;20885440;28;20082;-70
2023/09/20 03:48:03;;;;;;;14.95;5.57;;;;;;;20.42;100.00;101105.34;20920591;28;20056;-71
2023/09/20 03:58:26;;;;;;;13.60;5.47;;;;;;;20.39;100.00;101103.63;20894421;28;20041;-71
2023/09/20 04:08:52;;;;;;;16.27;5.78;;;;;;;20.31;100.00;101116.25;20883155;28;20496;-71
2023/09/20 04:19:15;;;;;;;13.68;4.75;;;;;;;20.29;100.00;101126.09;20890707;28;20045;-71
2023/09/20 04:29:39;;;;;;;14.88;5.05;;;;;;;20.27;100.00;101128.84;20883180;28;20060;-71
2023/09/20 04:40:03;;;;;;;14.50;5.22;;;;;;;20.41;100.00;101125.94;20909069;28;20118;-71
2023/09/20 04:50:28;;;;;;;13.73;5.03;;;;;;;20.72;100.00;101130.69;20921051;28;20072;-71
2023/09/20 05:00:51;;;;;;;10.32;4.47;;;;;;;20.78;100.00;101136.81;20896753;28;20033;-70
2023/09/20 05:11:16;;;;;;;12.57;4.38;;;;;;;21.11;100.00;101121.81;20874679;28;20049;-70
2023/09/20 05:21:40;;;;;;;11.38;4.32;;;;;;;21.98;100.00;101128.75;20883597;28;20077;-71
2023/09/20 05:32:05;;;;;;;10.98;3.88;;;;;;;23.23;100.00;101128.84;20911027;28;20056;-71
2023/09/20 05:42:28;;;;;;;7.40;3.00;;;;;;;24.23;100.00;101135.47;20898509;28;20056;-71
2023/09/20 05:52:55;;;;;;;13.23;3.25;;;;;;;24.73;100.00;101146.31;20884127;28;20132;-71
2023/09/20 06:03:18;;;;;;;10.48;3.38;;;;;;;24.98;100.00;101153.47;20923026;28;20075;-71
2023/09/20 06:13:42;;;;;;;7.55;2.92;;;;;;;25.89;100.00;101154.38;20894180;28;20045;-71
2023/09/20 06:24:10;;;;;;;11.68;2.80;;;;;;;26.71;100.00;101155.41;20898074;28;20049;-70
2023/09/20 06:34:34;;;;;;;9.48;2.88;;;;;;;26.87;100.00;101162.75;20883494;28;20053;-71
2023/09/20 06:44:57;;;;;;;8.02;2.83;;;;;;;27.90;100.00;101158.78;20879788;28;20087;-71
2023/09/20 06:55:21;;;;;;;9.05;2.50;;;;;;;28.03;97.61;101178.94;20843982;28;20045;-71
2023/09/20 07:05:44;;;;;;;6.88;2.33;;;;;;;28.70;86.68;101184.53;20890232;28;20075;-70
2023/09/20 07:16:10;;;;;;;5.68;2.78;;;;;;;29.14;80.79;101186.75;20868405;28;20049;-69
2023/09/20 07:26:32;;;;;;;6.15;2.55;;;;;;;29.77;73.35;101181.38;20902228;28;20088;-70
2023/09/20 07:36:57;;;;;;;5.53;2.20;;;;;;;30.33;68.77;101167.16;20913900;28;20045;-70
2023/09/20 07:47:20;;;;;;;8.10;2.47;;;;;;;30.63;63.12;101167.22;20878584;28;20059;-70
2023/09/20 07:57:45;;;;;;;6.07;2.53;;;;;;;30.43;57.47;101171.13;20856509;28;20153;-69
2023/09/20 08:08:08;;;;;;;3.23;1.80;;;;;;;30.84;54.84;101174.94;20907411;28;20552;-70
2023/09/20 09:01:17;;;;;;;7.20;2.13;;;;;;;31.93;48.74;101177.03;20901985;28;20057;-71
2023/09/20 09:11:40;;;;;;;9.30;2.45;;;;;;;31.77;46.58;101188.09;23013987;22;20056;-71
2023/09/20 09:22:04;;;;;;;6.05;2.13;;;;;;;31.93;46.13;101182.50;20894110;28;20095;-71
2023/09/20 09:32:27;;;;;;;6.35;2.38;;;;;;;32.21;45.03;101189.75;20899478;28;20049;-71
2023/09/20 09:42:52;;;;;;;8.80;2.70;;;;;;;32.43;45.47;101179.09;20915882;28;20136;-71
2023/09/20 09:53:15;;;;;;;8.70;2.40;;;;;;;32.53;45.63;101198.50;20915147;28;20061;-71
2023/09/20 10:03:44;;;;;;;10.90;3.15;;;;;;;32.66;45.86;101183.84;20888038;28;20060;-71
2023/09/20 10:14:09;;;;;;;6.80;2.35;;;;;;;32.67;44.48;101180.19;20878449;28;20111;-71
2023/09/20 10:24:45;;;;;;;6.57;2.27;;;;;;;32.70;44.32;101166.28;20893393;28;20052;-71
2023/09/20 10:35:22;;;;;;;6.78;2.47;;;;;;;32.82;45.29;101170.03;20893975;28;20139;-71
2023/09/20 10:45:52;;;;;;;6.05;2.45;;;;;;;32.43;44.40;101163.56;20894598;28;20487;-71
2023/09/20 10:57:02;;;;;;;7.15;2.67;;;;;;;32.09;46.04;101158.66;20886749;28;20057;-71
2023/09/20 11:07:27;;;;;;;6.63;2.50;;;;;;;31.61;46.32;101143.69;20887934;28;20053;-71
2023/09/20 11:17:50;;;;;;;6.87;2.50;;;;;;;31.31;45.89;101149.25;20876036;28;20064;-71
2023/09/20 11:28:16;;;;;;;10.93;2.65;;;;;;;31.01;46.48;101141.16;20874825;28;20494;-71
2023/09/20 11:38:40;;;;;;;7.00;2.47;;;;;;;30.83;46.57;101129.56;20856341;28;20511;-72
2023/09/20 11:49:05;;;;;;;7.32;2.65;;;;;;;30.80;46.98;101137.03;20885409;28;20053;-71
2023/09/20 11:59:28;;;;;;;11.52;3.00;;;;;;;30.70;46.65;101133.16;20889606;28;20704;-71
2023/09/20 12:09:53;;;;;;;6.57;2.75;;;;;;;30.46;47.44;101128.19;20875989;28;20079;-71
2023/09/20 12:20:17;;;;;;;9.48;2.90;;;;;;;30.39;48.09;101124.06;20705907;28;20702;-71
2023/09/20 12:30:42;;;;;;;7.57;2.90;;;;;;;30.17;49.67;101120.03;20736376;28;20058;-71
2023/09/20 12:41:05;;;;;;;11.05;3.63;;;;;;;29.92;49.87;101116.06;20730492;28;20054;-71
2023/09/20 12:51:29;;;;;;;10.32;2.85;;;;;;;29.78;50.91;101105.06;20737182;28;20046;-71
2023/09/20 13:01:52;;;;;;;8.60;3.08;;;;;;;29.81;52.33;101104.88;20722546;28;20049;-71
2023/09/20 13:12:17;;;;;;;9.02;3.10;;;;;;;29.61;56.21;101092.44;20763610;28;20103;-70
2023/09/20 13:22:39;;;;;;;10.43;3.22;;;;;;;29.41;58.68;101097.28;20879718;28;20056;-71
2023/09/20 13:33:05;;;;;;;7.82;2.60;;;;;;;29.23;59.02;101096.44;20895905;28;20044;-71
2023/09/20 13:43:28;;;;;;;7.15;3.30;;;;;;;29.07;59.81;101099.16;20888296;28;20054;-71
2023/09/20 13:53:52;;;;;;;12.45;3.33;;;;;;;28.85;60.71;101093.16;20898193;28;20044;-71
2023/09/20 14:04:14;;;;;;;10.25;3.20;;;;;;;28.85;60.31;101088.59;20887203;28;20049;-70
2023/09/20 14:14:39;;;;;;;11.45;3.63;;;;;;;28.76;62.21;101078.22;20896961;28;20070;-71
2023/09/20 14:25:01;;;;;;;10.50;3.47;;;;;;;28.50;64.91;101079.59;20888171;28;20049;-71
2023/09/20 14:35:27;;;;;;;4.82;2.88;;;;;;;28.26;66.41;101089.06;20894727;28;20053;-70
2023/09/20 14:45:49;;;;;;;11.75;4.13;;;;;;;27.80;70.47;101089.63;20889298;28;20048;-71
2023/09/20 14:56:14;;;;;;;9.38;3.42;;;;;;;27.44;74.03;101076.06;20868201;28;20057;-70
2023/09/20 15:06:37;;;;;;;8.30;3.10;;;;;;;27.12;76.37;101086.59;20854103;28;20134;-70
2023/09/20 15:17:02;;;;;;;9.43;3.60;;;;;;;26.84;78.59;101092.44;20858330;28;20061;-71
2023/09/20 15:27:24;;;;;;;8.70;3.95;;;;;;;26.57;81.25;101096.41;20875611;28;20064;-71
2023/09/20 15:37:48;;;;;;;11.18;4.20;;;;;;;26.41;82.55;101096.22;20934622;28;20159;-71
2023/09/20 15:48:14;;;;;;;8.23;3.40;;;;;;;26.24;82.58;101085.25;20896476;28;20056;-70
2023/09/20 15:58:38;;;;;;;7.30;3.70;;;;;;;25.94;85.58;101097.34;20875865;28;20143;-71
2023/09/20 16:09:01;;;;;;;8.45;4.00;;;;;;;25.71;86.09;101095.63;20871947;28;20080;-70
2023/09/20 16:19:25;;;;;;;6.82;3.63;;;;;;;25.52;87.52;101091.91;20886691;28;20049;-70
2023/09/20 16:29:49;;;;;;;8.63;3.65;;;;;;;25.28;89.98;101093.75;20889245;28;20048;-70
2023/09/20 16:40:14;;;;;;;11.45;4.15;;;;;;;24.84;98.69;101088.22;20899973;28;20057;-71
2023/09/20 16:50:36;;;;;;;9.93;4.53;;;;;;;24.53;100.00;101109.22;20874918;28;20048;-69
2023/09/20 17:01:03;;;;;;;8.93;4.60;;;;;;;24.42;100.00;101117.69;20866371;28;20051;-70
2023/09/20 17:11:26;;;;;;;8.68;4.25;;;;;;;24.21;100.00;101138.25;20803436;28;1682421;-69
2023/09/20 17:21:51;;;;;;;6.82;4.13;;;;;;;24.11;100.00;101128.66;20897613;28;20140;-69
2023/09/20 17:32:15;;;;;;;10.18;3.92;;;;;;;23.99;100.00;101142.56;20875304;28;20072;-69
2023/09/20 17:42:39;;;;;;;7.10;3.70;;;;;;;23.96;100.00;101147.19;20895888;28;20059;-70
2023/09/20 17:53:02;;;;;;;8.02;4.13;;;;;;;23.79;100.00;101167.50;20920738;28;20059;-70
2023/09/20 18:03:27;;;;;;;9.93;4.78;;;;;;;23.65;100.00;101175.16;20897086;28;20476;-70
2023/09/20 18:13:49;;;;;;;28.35;19.08;;;;;;;23.47;100.00;101194.59;20887433;28;20045;-68
2023/09/20 18:24:14;;;;;;;6.57;3.63;;;;;;;23.43;100.00;101214.47;20917990;28;20052;-69
2023/09/20 18:34:36;;;;;;;8.07;4.05;;;;;;;23.35;100.00;101203.03;20888860;28;20049;-69
2023/09/20 18:45:02;;;;;;;11.13;6.13;;;;;;;23.26;100.00;101212.25;20877523;28;20056;-69
2023/09/20 18:55:25;;;;;;;8.43;4.47;;;;;;;23.12;100.00;101205.50;20874026;28;20044;-68
2023/09/20 19:05:52;;;;;;;8.32;3.97;;;;;;;22.94;100.00;101202.41;20889175;28;20059;-68
2023/09/20 19:16:15;;;;;;;9.82;5.32;;;;;;;22.74;100.00;101209.28;20886116;28;20052;-70
2023/09/20 19:26:40;;;;;;;13.93;6.88;;;;;;;22.25;100.00;101199.78;20873891;28;20133;-70
2023/09/20 19:37:04;;;;;;;8.50;4.65;;;;;;;22.10;100.00;101206.44;20874183;28;20049;-70
2023/09/20 19:47:30;;;;;;;11.68;4.70;;;;;;;21.97;100.00;101202.28;20887449;28;20069;-70
2023/09/20 19:57:54;;;;;;;7.13;3.63;;;;;;;21.91;100.00;101188.94;20890495;28;20052;-70
2023/09/20 20:08:21;;;;;;;7.43;4.40;;;;;;;21.66;100.00;101185.06;20895723;28;20624;-70
2023/09/20 20:18:45;;;;;;;9.38;5.43;;;;;;;21.51;100.00;101159.44;20874033;28;20135;-70
2023/09/20 20:29:10;;;;;;;7.22;4.03;;;;;;;21.01;100.00;101153.31;20873415;28;20060;-70
2023/09/20 20:39:33;;;;;;;9.88;4.88;;;;;;;20.87;100.00;101167.97;20869002;28;20445;-70
2023/09/20 20:49:57;;;;;;;8.18;4.35;;;;;;;21.15;100.00;101174.50;20891119;28;20409;-71
2023/09/20 21:00:24;;;;;;;9.93;4.45;;;;;;;21.00;100.00;101169.50;20891818;28;20053;-70
2023/09/20 21:10:49;;;;;;;6.65;4.03;;;;;;;20.97;100.00;101174.91;20882503;28;20132;-70
2023/09/20 21:21:11;;;;;;;9.40;5.20;;;;;;;20.82;100.00;101177.88;20886845;28;20049;-69
2023/09/20 21:31:41;;;;;;;9.45;3.90;;;;;;;20.83;100.00;101166.25;20901041;28;20057;-69
2023/09/20 21:42:04;;;;;;;9.38;4.15;;;;;;;20.28;100.00;101168.13;20809835;28;20121;-70
2023/09/20 21:52:28;;;;;;;7.00;4.30;;;;;;;20.56;100.00;101171.22;20901377;28;20144;-70
2023/09/20 22:02:52;;;;;;;8.90;4.18;;;;;;;20.63;100.00;101172.00;20897528;28;20087;-69
2023/09/20 22:13:16;;;;;;;8.15;4.57;;;;;;;20.62;100.00;101162.19;20891789;28;20528;-70
2023/09/20 22:23:39;;;;;;;8.65;4.30;;;;;;;20.51;100.00;101175.81;20905215;28;20052;-70
2023/09/20 22:34:11;;;;;;;9.63;4.22;;;;;;;20.57;100.00;101166.75;20893933;28;20098;-70
2023/09/20 22:44:34;;;;;;;10.15;4.35;;;;;;;20.65;100.00;101146.03;20893172;28;20051;-70
2023/09/20 22:55:00;;;;;;;9.32;4.72;;;;;;;20.83;100.00;101147.47;20875897;28;20049;-69
2023/09/20 23:05:25;;;;;;;8.13;4.47;;;;;;;21.03;100.00;101142.56;20891765;28;20048;-69
2023/09/20 23:15:51;;;;;;;11.82;4.88;;;;;;;21.10;100.00;101133.47;20889720;28;20080;-70
2023/09/20 23:26:15;;;;;;;9.75;4.72;;;;;;;21.20;100.00;101142.25;20874190;28;20501;-70
2023/09/20 23:36:41;;;;;;;8.77;4.82;;;;;;;21.31;100.00;101146.47;20859524;28;20067;-70
2023/09/20 23:47:04;;;;;;;13.63;5.28;;;;;;;21.38;100.00;101145.41;20892980;28;20045;-71
2023/09/20 23:57:28;;;;;;;9.63;4.63;;;;;;;21.44;100.00;101157.81;20885177;28;20045;-70
